Time;durP1;ratioP1;P1;durP2;ratioP2;P2;SDS_P1;SDS_P2;PMS_P1;PMS_P2;Temp;Humidity;BMP_temperature;BMP_pressure;BME280_temperature;BME280_humidity;BME280_pressure;Samples;Min_cycle;Max_cycle;Signal;HPM_P1;HPM_P2
2021/03/08 00:01:17;;;;;;;9.43;1.73;;;19.40;40.50;;;;;;5086012;27;20496;-71
2021/03/08 00:03:43;;;;;;;1.53;1.27;;;19.30;39.80;;;;;;5071082;27;20507;-70
2021/03/08 00:06:10;;;;;;;4.93;1.83;;;19.40;40.30;;;;;;5096014;27;20481;-71
2021/03/08 00:08:36;;;;;;;4.00;2.00;;;19.40;40.30;;;;;;5076800;28;20481;-72
2021/03/08 00:11:02;;;;;;;3.00;1.43;;;19.40;40.50;;;;;;5071821;28;20480;-71
2021/03/08 00:13:33;;;;;;;2.73;1.80;;;19.40;40.00;;;;;;5073393;28;21484;-72
2021/03/08 00:15:59;;;;;;;3.57;1.80;;;19.40;40.00;;;;;;5062979;28;20478;-72
2021/03/08 00:18:26;;;;;;;3.07;1.60;;;19.40;39.90;;;;;;5073772;28;20594;-72
2021/03/08 00:20:53;;;;;;;3.20;1.20;;;19.40;39.90;;;;;;5070867;28;21022;-72
2021/03/08 00:23:19;;;;;;;1.87;1.77;;;19.40;39.90;;;;;;5069186;28;20490;-72
2021/03/08 00:25:45;;;;;;;2.13;1.60;;;19.40;39.80;;;;;;5065714;28;20492;-71
2021/03/08 00:28:11;;;;;;;3.40;1.67;;;19.40;39.90;;;;;;5103866;27;20492;-72
2021/03/08 00:30:37;;;;;;;2.13;1.37;;;19.50;40.20;;;;;;5070344;28;20495;-72
2021/03/08 00:33:04;;;;;;;4.53;1.63;;;19.50;40.20;;;;;;5074076;28;21016;-72
2021/03/08 00:35:31;;;;;;;8.93;2.23;;;19.50;39.80;;;;;;5073040;27;21096;-72
2021/03/08 00:37:57;;;;;;;2.10;1.80;;;19.50;39.60;;;;;;5090549;27;21281;-72
2021/03/08 00:40:25;;;;;;;5.17;2.07;;;19.50;39.70;;;;;;5072585;28;20480;-73
2021/03/08 00:42:51;;;;;;;1.53;1.40;;;19.50;39.70;;;;;;5074386;28;20500;-72
2021/03/08 00:45:18;;;;;;;2.87;1.60;;;19.50;39.80;;;;;;5073480;28;20472;-72
2021/03/08 00:47:44;;;;;;;4.20;1.93;;;19.60;39.70;;;;;;5071712;28;20477;-71
2021/03/08 00:50:12;;;;;;;2.83;1.60;;;19.50;39.50;;;;;;5073659;28;20484;-72
2021/03/08 00:52:40;;;;;;;3.17;1.73;;;19.50;39.50;;;;;;5065215;28;20502;-72
2021/03/08 00:55:07;;;;;;;3.23;1.43;;;19.50;39.60;;;;;;5070086;27;20546;-72
2021/03/08 00:57:34;;;;;;;2.67;1.60;;;19.50;39.60;;;;;;5092688;27;20472;-72
2021/03/08 01:00:00;;;;;;;5.20;2.17;;;19.50;39.80;;;;;;5078758;28;20923;-71
2021/03/08 01:02:26;;;;;;;2.23;1.50;;;19.50;39.80;;;;;;5072733;28;21016;-72
2021/03/08 01:04:52;;;;;;;2.20;1.23;;;19.50;39.80;;;;;;5068909;28;20535;-72
2021/03/08 01:07:18;;;;;;;3.73;1.53;;;19.50;39.70;;;;;;5074155;28;20888;-72
2021/03/08 01:09:45;;;;;;;2.07;1.80;;;19.50;39.80;;;;;;5069967;27;20518;-72
2021/03/08 01:12:12;;;;;;;3.07;1.30;;;19.50;39.70;;;;;;5029659;27;20480;-71
2021/03/08 01:14:39;;;;;;;5.00;1.80;;;19.50;39.60;;;;;;5072498;28;20505;-72
2021/03/08 01:17:05;;;;;;;6.20;1.37;;;19.50;39.60;;;;;;5057496;28;20493;-72
2021/03/08 01:19:31;;;;;;;4.40;2.33;;;19.50;39.30;;;;;;5066786;28;20500;-72
2021/03/08 01:21:57;;;;;;;1.10;1.00;;;19.50;39.20;;;;;;5059544;27;20890;-72
2021/03/08 01:24:24;;;;;;;3.20;1.70;;;19.50;39.30;;;;;;5091304;27;20489;-72
2021/03/08 01:26:51;;;;;;;1.73;1.67;;;19.50;39.10;;;;;;5061355;28;20488;-72
2021/03/08 01:29:17;;;;;;;8.13;2.10;;;19.50;39.20;;;;;;5081701;27;20471;-72
2021/03/08 01:31:43;;;;;;;6.43;1.83;;;19.50;39.20;;;;;;5074998;27;20873;-72
2021/03/08 01:34:09;;;;;;;6.23;1.37;;;19.50;39.40;;;;;;5060639;28;20486;-72
2021/03/08 01:36:35;;;;;;;3.77;1.73;;;19.50;39.40;;;;;;5066700;28;20604;-72
2021/03/08 01:39:02;;;;;;;1.23;0.97;;;19.50;39.40;;;;;;5085046;27;20491;-71
2021/03/08 01:41:28;;;;;;;2.13;1.50;;;19.50;39.10;;;;;;5070742;27;20486;-72
2021/03/08 01:43:55;;;;;;;5.60;1.70;;;19.50;38.80;;;;;;5084040;27;20860;-72
2021/03/08 01:46:22;;;;;;;2.00;1.80;;;19.50;39.10;;;;;;5063520;28;20512;-72
2021/03/08 01:48:48;;;;;;;3.17;1.97;;;19.50;39.10;;;;;;5064293;28;20481;-72
2021/03/08 01:51:14;;;;;;;3.60;1.30;;;19.50;38.90;;;;;;5065263;28;20473;-72
2021/03/08 01:53:41;;;;;;;1.93;1.57;;;19.60;38.90;;;;;;5062123;28;20476;-72
2021/03/08 01:56:07;;;;;;;3.30;1.30;;;19.60;38.80;;;;;;5056164;28;20489;-72
2021/03/08 01:58:33;;;;;;;3.70;1.80;;;19.60;38.70;;;;;;5068766;28;20484;-72
2021/03/08 02:01:00;;;;;;;2.23;2.03;;;19.60;38.80;;;;;;5063926;28;20551;-73
2021/03/08 02:03:26;;;;;;;2.30;1.30;;;19.50;39.00;;;;;;5070401;28;20566;-72
2021/03/08 02:05:53;;;;;;;5.73;1.80;;;19.50;39.10;;;;;;5076645;27;20483;-72
2021/03/08 02:08:20;;;;;;;2.80;1.40;;;19.50;38.90;;;;;;5086666;27;20486;-72
2021/03/08 02:10:46;;;;;;;3.80;2.00;;;19.50;39.10;;;;;;5076556;28;20484;-72
2021/03/08 02:13:29;;;;;;;2.37;1.97;;;19.50;39.00;;;;;;5068647;28;20483;-72
2021/03/08 02:15:58;;;;;;;2.10;1.43;;;19.50;39.10;;;;;;5067463;28;20606;-72
2021/03/08 02:18:33;;;;;;;3.23;1.47;;;19.50;39.10;;;;;;5070743;28;20515;-72
2021/03/08 02:21:18;;;;;;;1.60;1.40;;;19.50;39.10;;;;;;5069986;28;20599;-72
2021/03/08 02:24:19;;;;;;;3.93;1.60;;;19.50;38.80;;;;;;5060495;28;20484;-72
2021/03/08 02:26:47;;;;;;;2.80;1.23;;;19.50;38.90;;;;;;5061173;28;20605;-73
2021/03/08 02:29:34;;;;;;;1.60;1.50;;;19.50;38.90;;;;;;5070956;28;20481;-72
2021/03/08 02:32:03;;;;;;;6.90;2.00;;;19.50;38.90;;;;;;5067998;28;20483;-72
2021/03/08 02:34:30;;;;;;;2.47;1.80;;;19.50;38.70;;;;;;5072559;28;20476;-73
2021/03/08 02:36:59;;;;;;;2.30;1.70;;;19.50;38.60;;;;;;5069002;28;20831;-72
2021/03/08 02:39:26;;;;;;;2.10;1.50;;;19.50;38.40;;;;;;5071997;28;20481;-73
2021/03/08 02:41:53;;;;;;;2.50;1.30;;;19.50;38.40;;;;;;5072469;28;20965;-73
2021/03/08 02:44:19;;;;;;;2.50;1.40;;;19.50;39.30;;;;;;5070953;28;20473;-72
2021/03/08 02:46:47;;;;;;;2.50;1.60;;;19.50;38.50;;;;;;5071675;28;20534;-72
2021/03/08 02:49:16;;;;;;;3.03;1.20;;;19.50;38.30;;;;;;5057348;28;20481;-72
2021/03/08 02:51:43;;;;;;;3.50;1.30;;;19.50;38.30;;;;;;5072206;28;20484;-72
2021/03/08 02:54:09;;;;;;;2.57;1.20;;;19.50;38.20;;;;;;5070810;28;20466;-73
2021/03/08 02:56:36;;;;;;;1.50;1.20;;;19.50;38.30;;;;;;5068792;28;21010;-72
2021/03/08 02:59:03;;;;;;;3.03;1.73;;;19.50;38.10;;;;;;5072285;28;20461;-72
2021/03/08 03:01:29;;;;;;;3.17;1.60;;;19.50;38.00;;;;;;5072465;28;20478;-72
2021/03/08 03:03:56;;;;;;;2.40;1.60;;;19.50;37.60;;;;;;5067722;27;20500;-72
2021/03/08 03:06:25;;;;;;;3.90;1.07;;;19.50;37.70;;;;;;5091148;27;20495;-72
2021/03/08 03:08:51;;;;;;;2.83;1.80;;;19.50;38.10;;;;;;5070708;28;20481;-72
2021/03/08 03:11:17;;;;;;;1.83;1.30;;;19.50;38.30;;;;;;5070974;28;20481;-71
2021/03/08 03:13:44;;;;;;;1.60;1.50;;;19.50;38.40;;;;;;5066982;28;20484;-72
2021/03/08 03:16:11;;;;;;;2.40;1.20;;;19.40;38.10;;;;;;5067384;28;21489;-72
2021/03/08 03:18:37;;;;;;;3.53;1.47;;;19.40;38.30;;;;;;5069505;28;20488;-72
2021/03/08 03:21:04;;;;;;;2.87;1.47;;;19.40;38.10;;;;;;5070311;28;20890;-72
2021/03/08 03:23:31;;;;;;;2.27;1.37;;;19.40;38.30;;;;;;5068036;28;21179;-73
2021/03/08 03:25:58;;;;;;;1.77;1.23;;;19.40;38.20;;;;;;5071081;28;20512;-72
2021/03/08 03:28:24;;;;;;;1.60;1.50;;;19.40;38.30;;;;;;5070596;28;20985;-72
2021/03/08 03:30:50;;;;;;;2.33;1.23;;;19.40;38.30;;;;;;5069344;28;20485;-71
2021/03/08 03:33:17;;;;;;;2.97;1.40;;;19.30;38.30;;;;;;5069695;28;20481;-72
2021/03/08 03:35:43;;;;;;;4.20;1.37;;;19.30;38.30;;;;;;5071217;28;20488;-71
2021/03/08 03:38:09;;;;;;;2.23;1.80;;;19.30;38.30;;;;;;5069026;28;20480;-72
2021/03/08 03:40:37;;;;;;;1.97;1.77;;;19.30;38.10;;;;;;5070863;28;20520;-72
2021/03/08 03:43:03;;;;;;;2.60;1.33;;;19.30;38.00;;;;;;5068576;28;20496;-72
2021/03/08 03:45:29;;;;;;;2.80;1.73;;;19.30;38.70;;;;;;5069467;28;20502;-72
2021/03/08 03:47:56;;;;;;;1.40;1.30;;;19.30;37.60;;;;;;5071287;28;20495;-71
2021/03/08 03:50:22;;;;;;;3.17;1.60;;;19.30;37.60;;;;;;5077362;28;20980;-72
2021/03/08 03:52:49;;;;;;;2.23;1.33;;;19.30;37.60;;;;;;5075729;28;20488;-72
2021/03/08 03:55:16;;;;;;;1.50;1.40;;;19.30;37.80;;;;;;5065916;28;20487;-72
2021/03/08 03:57:46;;;;;;;1.17;1.07;;;19.30;37.80;;;;;;5094457;28;20473;-71
2021/03/08 04:00:14;;;;;;;1.27;1.00;;;19.30;37.90;;;;;;5068169;28;20476;-74
2021/03/08 04:02:42;;;;;;;1.93;1.40;;;19.30;38.00;;;;;;5071154;28;20465;-72
2021/03/08 04:05:10;;;;;;;1.33;1.23;;;19.30;38.00;;;;;;5071266;28;20528;-72
2021/03/08 04:07:36;;;;;;;2.10;1.50;;;19.20;37.80;;;;;;5068080;28;20491;-72
2021/03/08 04:10:03;;;;;;;1.67;1.40;;;19.20;37.50;;;;;;5068611;28;20478;-72
2021/03/08 04:12:33;;;;;;;4.53;1.40;;;19.20;37.20;;;;;;5070687;28;20560;-72
2021/03/08 04:15:04;;;;;;;4.07;1.47;;;19.10;37.10;;;;;;5065895;28;21039;-72
2021/03/08 04:17:30;;;;;;;1.57;0.90;;;19.10;37.10;;;;;;5067444;28;20480;-72
2021/03/08 04:19:57;;;;;;;3.03;1.60;;;19.10;37.10;;;;;;5068515;28;20480;-72
2021/03/08 04:22:24;;;;;;;3.63;1.50;;;19.20;37.20;;;;;;5067938;28;20542;-72
2021/03/08 04:24:50;;;;;;;1.67;1.30;;;19.30;37.30;;;;;;5066211;28;20481;-72
2021/03/08 04:27:17;;;;;;;1.13;1.13;;;19.30;37.10;;;;;;5069504;28;20480;-72
2021/03/08 04:29:43;;;;;;;2.70;1.50;;;19.30;37.30;;;;;;5074227;27;20522;-72
2021/03/08 04:32:11;;;;;;;5.07;1.20;;;19.30;37.30;;;;;;5087681;27;20963;-72
2021/03/08 04:34:37;;;;;;;1.10;0.97;;;19.30;37.30;;;;;;5065360;28;20500;-72
2021/03/08 04:37:04;;;;;;;1.67;1.33;;;19.30;37.30;;;;;;5084010;28;20569;-72
2021/03/08 04:39:31;;;;;;;3.33;1.80;;;19.30;37.30;;;;;;5073084;28;20481;-72
2021/03/08 04:41:57;;;;;;;1.63;1.20;;;19.30;37.10;;;;;;5074434;28;20500;-72
2021/03/08 04:44:23;;;;;;;2.90;1.30;;;19.40;37.30;;;;;;5072591;28;20488;-72
2021/03/08 04:46:50;;;;;;;2.20;0.90;;;19.40;37.30;;;;;;5072646;28;21000;-72
2021/03/08 04:49:18;;;;;;;3.77;2.33;;;19.40;36.90;;;;;;5077178;28;20987;-72
2021/03/08 04:51:45;;;;;;;1.70;1.60;;;19.40;36.70;;;;;;5070313;28;20524;-72
2021/03/08 04:54:11;;;;;;;1.07;1.00;;;19.30;37.00;;;;;;5073010;28;20474;-71
2021/03/08 04:56:37;;;;;;;2.47;1.17;;;19.30;37.30;;;;;;5070447;28;20481;-72
2021/03/08 04:59:04;;;;;;;5.43;1.60;;;19.30;37.20;;;;;;5071833;28;20843;-72
2021/03/08 05:01:32;;;;;;;2.77;1.13;;;19.30;37.30;;;;;;5069853;28;20489;-72
2021/03/08 05:03:58;;;;;;;1.73;1.63;;;19.30;37.30;;;;;;5073277;28;20481;-72
2021/03/08 05:06:25;;;;;;;1.80;1.40;;;19.30;37.30;;;;;;5069248;28;20481;-72
2021/03/08 05:08:52;;;;;;;1.03;1.03;;;19.30;37.20;;;;;;5071078;28;20485;-72
2021/03/08 05:11:18;;;;;;;1.30;1.20;;;19.30;37.30;;;;;;5071730;28;20480;-72
2021/03/08 05:13:44;;;;;;;1.53;1.37;;;19.30;37.30;;;;;;5072596;28;20473;-73
2021/03/08 05:16:10;;;;;;;2.20;1.23;;;19.30;36.90;;;;;;5069625;28;20477;-73
2021/03/08 05:18:37;;;;;;;1.10;1.00;;;19.30;36.10;;;;;;5070512;28;21050;-72
2021/03/08 05:21:03;;;;;;;1.83;1.23;;;19.30;36.70;;;;;;5076998;28;20473;-72
2021/03/08 05:23:30;;;;;;;2.10;1.33;;;19.40;36.40;;;;;;5073238;28;20489;-73
2021/03/08 05:25:58;;;;;;;3.00;1.83;;;19.40;36.50;;;;;;5071356;28;20480;-72
2021/03/08 05:28:24;;;;;;;1.70;1.20;;;19.40;36.20;;;;;;5073486;28;20989;-72
2021/03/08 05:30:52;;;;;;;1.93;1.27;;;19.40;36.30;;;;;;5071882;28;20495;-72
2021/03/08 05:33:19;;;;;;;4.77;1.53;;;19.40;36.10;;;;;;5071686;28;20557;-72
2021/03/08 05:35:46;;;;;;;2.23;1.00;;;19.50;35.80;;;;;;5062045;28;20488;-73
2021/03/08 05:38:12;;;;;;;1.73;1.20;;;19.40;35.70;;;;;;5070315;28;20906;-73
2021/03/08 05:40:41;;;;;;;3.90;1.30;;;19.50;36.10;;;;;;5075102;27;20504;-75
2021/03/08 05:43:09;;;;;;;2.40;1.23;;;19.50;35.90;;;;;;5090871;27;20565;-72
2021/03/08 05:45:37;;;;;;;1.70;0.93;;;19.50;35.70;;;;;;5071217;28;20493;-73
2021/03/08 05:48:32;;;;;;;2.40;1.10;;;19.50;35.90;;;;;;5073918;28;20473;-72
2021/03/08 05:51:32;;;;;;;1.10;1.03;;;19.50;35.50;;;;;;5074154;28;21530;-72
2021/03/08 05:54:18;;;;;;;3.07;1.77;;;19.50;35.40;;;;;;4989279;28;20493;-72
2021/03/08 05:56:58;;;;;;;5.73;1.33;;;19.50;35.60;;;;;;5060866;28;20469;-73
2021/03/08 05:59:36;;;;;;;0.80;0.80;;;19.50;36.00;;;;;;5064617;28;20969;-73
2021/03/08 06:02:10;;;;;;;1.83;1.20;;;19.60;36.10;;;;;;5063862;28;20480;-72
2021/03/08 06:04:53;;;;;;;3.53;1.77;;;19.60;36.10;;;;;;5077335;28;20485;-73
2021/03/08 06:07:42;;;;;;;1.33;1.13;;;19.60;36.30;;;;;;5068683;28;20472;-72
2021/03/08 06:10:09;;;;;;;1.63;0.90;;;19.60;36.20;;;;;;5073428;28;20499;-73
2021/03/08 06:12:37;;;;;;;1.40;1.30;;;19.50;36.30;;;;;;5075067;28;21030;-72
2021/03/08 06:15:07;;;;;;;2.30;1.23;;;19.50;36.50;;;;;;5070397;28;20846;-73
2021/03/08 06:17:33;;;;;;;1.90;1.07;;;19.50;36.60;;;;;;5065903;27;20866;-73
2021/03/08 06:19:59;;;;;;;2.90;1.30;;;19.40;36.20;;;;;;5065162;28;20488;-73
2021/03/08 06:22:26;;;;;;;1.37;1.30;;;19.40;35.80;;;;;;5069363;28;20500;-72
2021/03/08 06:24:52;;;;;;;2.37;1.40;;;19.50;35.00;;;;;;5063659;28;21466;-73
2021/03/08 06:27:18;;;;;;;1.60;1.50;;;19.50;35.00;;;;;;5064106;28;20486;-72
2021/03/08 06:29:45;;;;;;;2.10;1.37;;;19.50;36.10;;;;;;5062649;28;20476;-72
2021/03/08 06:32:11;;;;;;;4.70;1.60;;;19.50;35.80;;;;;;5067616;28;20496;-72
2021/03/08 06:34:38;;;;;;;2.10;1.20;;;19.60;35.60;;;;;;5072348;28;20521;-72
2021/03/08 06:37:05;;;;;;;8.57;1.80;;;19.60;35.30;;;;;;5060447;28;20479;-73
2021/03/08 06:39:33;;;;;;;1.57;1.47;;;19.70;35.20;;;;;;5072271;28;20484;-72
2021/03/08 06:41:59;;;;;;;4.40;1.80;;;19.70;35.20;;;;;;5074744;28;20489;-72
2021/03/08 06:44:26;;;;;;;6.43;1.83;;;19.70;35.40;;;;;;5070337;28;20485;-73
2021/03/08 06:46:53;;;;;;;2.10;1.17;;;19.70;35.40;;;;;;5068753;28;20912;-72
2021/03/08 06:49:19;;;;;;;1.53;1.43;;;19.70;35.30;;;;;;5067534;28;20504;-73
2021/03/08 06:52:04;;;;;;;1.63;1.10;;;19.70;35.30;;;;;;5069010;28;20477;-73
2021/03/08 06:54:31;;;;;;;2.13;1.50;;;19.70;35.50;;;;;;5072376;28;20469;-73
2021/03/08 06:56:57;;;;;;;1.50;1.40;;;19.60;35.50;;;;;;5072170;28;20472;-73
2021/03/08 06:59:23;;;;;;;1.00;0.97;;;19.60;35.90;;;;;;5070120;28;20477;-72
2021/03/08 07:01:51;;;;;;;0.87;0.87;;;19.70;35.90;;;;;;5063421;28;20522;-73
2021/03/08 07:04:19;;;;;;;2.20;1.40;;;19.70;36.10;;;;;;5084331;28;20479;-74
2021/03/08 07:06:58;;;;;;;1.50;1.40;;;19.70;35.90;;;;;;5069437;28;20473;-73
2021/03/08 07:09:24;;;;;;;1.17;0.97;;;19.80;36.00;;;;;;5067682;28;20487;-73
2021/03/08 07:12:04;;;;;;;1.43;1.30;;;19.80;35.90;;;;;;5070657;28;20496;-73
2021/03/08 07:14:30;;;;;;;1.20;1.10;;;19.80;36.00;;;;;;5068900;28;20481;-73
2021/03/08 07:16:56;;;;;;;2.13;1.30;;;19.80;36.00;;;;;;5072748;28;20499;-73
2021/03/08 07:19:23;;;;;;;1.90;1.13;;;19.80;36.20;;;;;;5071472;28;20868;-73
2021/03/08 07:21:50;;;;;;;3.80;2.00;;;19.70;36.00;;;;;;5068016;28;20507;-73
2021/03/08 07:24:16;;;;;;;1.83;1.30;;;19.70;36.10;;;;;;5070710;28;20488;-73
2021/03/08 07:26:50;;;;;;;2.70;1.30;;;19.70;36.10;;;;;;5069492;28;20506;-74
2021/03/08 07:29:16;;;;;;;1.10;1.00;;;19.70;36.20;;;;;;5069914;28;20469;-72
2021/03/08 07:31:44;;;;;;;2.67;1.43;;;19.60;36.20;;;;;;5070952;28;20492;-73
2021/03/08 07:34:11;;;;;;;3.53;1.30;;;19.60;36.30;;;;;;5072057;28;20491;-73
2021/03/08 07:36:38;;;;;;;1.83;1.73;;;19.60;36.30;;;;;;5069418;28;20481;-72
2021/03/08 07:39:14;;;;;;;1.67;1.47;;;19.60;36.30;;;;;;5070482;28;20488;-72
2021/03/08 07:41:54;;;;;;;0.87;0.87;;;19.60;36.50;;;;;;5070968;28;21616;-73
2021/03/08 07:44:21;;;;;;;1.93;1.83;;;19.60;36.50;;;;;;5061752;28;20532;-73
2021/03/08 07:46:47;;;;;;;1.17;1.10;;;19.60;36.50;;;;;;5073508;28;20562;-73
2021/03/08 07:49:13;;;;;;;1.70;0.90;;;19.60;37.50;;;;;;5068381;28;20477;-72
2021/03/08 07:52:01;;;;;;;1.50;1.40;;;19.60;37.20;;;;;;5070010;28;21000;-72
2021/03/08 07:54:27;;;;;;;1.13;0.90;;;19.60;37.50;;;;;;5068870;28;20479;-73
2021/03/08 07:56:54;;;;;;;1.90;1.20;;;19.60;37.30;;;;;;5071000;28;20480;-73
2021/03/08 07:59:20;;;;;;;2.10;1.67;;;19.60;37.10;;;;;;5072673;28;20477;-72
2021/03/08 08:01:48;;;;;;;1.50;1.10;;;19.70;37.10;;;;;;5068168;28;20538;-72
2021/03/08 08:04:14;;;;;;;1.50;1.40;;;19.60;37.10;;;;;;5074766;28;20482;-72
2021/03/08 08:06:41;;;;;;;0.90;0.90;;;19.60;37.10;;;;;;5076713;28;20473;-73
2021/03/08 08:09:08;;;;;;;1.20;1.07;;;19.60;37.20;;;;;;5072325;28;20496;-73
2021/03/08 08:11:34;;;;;;;2.00;1.43;;;19.60;37.00;;;;;;5076471;28;20538;-72
2021/03/08 08:14:00;;;;;;;1.00;1.00;;;19.70;37.60;;;;;;5071445;28;21005;-73
2021/03/08 08:16:29;;;;;;;1.37;1.27;;;19.60;37.50;;;;;;5073171;28;20485;-72
2021/03/08 08:19:03;;;;;;;0.90;0.90;;;19.70;37.30;;;;;;5073778;28;20545;-73
2021/03/08 08:21:32;;;;;;;1.30;1.20;;;19.70;37.30;;;;;;5082789;27;20475;-74
2021/03/08 08:24:04;;;;;;;1.07;0.97;;;19.80;37.40;;;;;;5083531;27;20546;-73
2021/03/08 08:26:31;;;;;;;1.13;1.10;;;19.70;37.30;;;;;;5074021;28;20469;-73
2021/03/08 08:28:57;;;;;;;1.30;1.10;;;19.70;37.40;;;;;;5074401;28;20854;-72
2021/03/08 08:31:23;;;;;;;1.23;1.03;;;19.70;37.60;;;;;;5068864;28;20517;-72
2021/03/08 08:33:49;;;;;;;1.50;1.40;;;19.70;37.60;;;;;;5079159;27;20512;-72
2021/03/08 08:36:18;;;;;;;1.23;1.13;;;19.70;37.60;;;;;;5071080;28;20483;-74
2021/03/08 08:39:11;;;;;;;1.43;1.00;;;19.70;37.60;;;;;;5072744;28;20491;-72
2021/03/08 08:41:38;;;;;;;3.77;1.30;;;19.80;37.30;;;;;;5073862;28;20481;-72
2021/03/08 08:44:38;;;;;;;4.83;1.00;;;19.80;37.50;;;;;;5073468;28;20545;-73
2021/03/08 08:47:25;;;;;;;2.00;1.30;;;19.80;38.10;;;;;;5071510;28;20482;-73
2021/03/08 08:49:53;;;;;;;2.27;1.37;;;19.80;37.10;;;;;;5063159;28;21346;-73
2021/03/08 08:52:43;;;;;;;1.30;1.17;;;19.80;37.70;;;;;;5074093;28;21605;-73
2021/03/08 08:55:10;;;;;;;1.60;1.07;;;19.70;37.90;;;;;;5071740;28;20477;-73
2021/03/08 08:57:37;;;;;;;1.97;1.87;;;19.70;37.60;;;;;;5075576;28;20519;-73
2021/03/08 09:00:16;;;;;;;1.03;0.83;;;19.70;37.60;;;;;;5070970;28;20489;-74
2021/03/08 09:02:43;;;;;;;0.97;0.97;;;19.70;37.60;;;;;;5071423;27;20559;-74
2021/03/08 09:05:37;;;;;;;0.90;0.80;;;19.70;37.60;;;;;;5072775;28;20485;-73
2021/03/08 09:08:22;;;;;;;1.50;1.10;;;19.70;37.60;;;;;;5069880;28;20473;-73
2021/03/08 09:10:49;;;;;;;2.00;1.30;;;19.70;37.60;;;;;;5062877;28;20857;-73
2021/03/08 09:13:16;;;;;;;1.20;1.10;;;19.70;37.60;;;;;;5070109;28;20560;-73
2021/03/08 09:15:42;;;;;;;1.93;1.00;;;19.80;37.70;;;;;;5073977;28;20529;-72
2021/03/08 09:18:09;;;;;;;2.20;0.87;;;19.80;37.80;;;;;;5070283;28;20483;-73
2021/03/08 09:20:35;;;;;;;2.43;1.63;;;19.90;37.40;;;;;;5089295;27;20471;-72
2021/03/08 09:23:02;;;;;;;1.43;1.00;;;20.00;37.30;;;;;;5074038;27;20477;-72
2021/03/08 09:25:29;;;;;;;1.30;0.87;;;20.00;37.20;;;;;;5072250;28;20484;-72
2021/03/08 09:28:07;;;;;;;4.47;1.10;;;20.00;37.20;;;;;;5073711;28;20881;-73
2021/03/08 09:30:36;;;;;;;0.87;0.87;;;20.00;37.10;;;;;;5072959;28;20544;-73
2021/03/08 09:33:05;;;;;;;2.30;1.30;;;20.00;37.20;;;;;;5075701;27;20569;-72
2021/03/08 09:35:32;;;;;;;1.00;1.00;;;20.00;37.20;;;;;;5074892;27;20481;-72
2021/03/08 09:38:00;;;;;;;1.13;0.90;;;20.00;37.20;;;;;;5069193;28;20484;-72
2021/03/08 09:40:27;;;;;;;0.93;0.90;;;19.90;37.40;;;;;;5070586;28;20485;-73
2021/03/08 09:42:53;;;;;;;1.00;1.00;;;19.90;37.40;;;;;;5070799;27;20479;-73
2021/03/08 09:45:21;;;;;;;1.13;1.13;;;19.90;37.70;;;;;;5078775;28;20542;-73
2021/03/08 09:47:48;;;;;;;1.23;0.83;;;19.90;37.80;;;;;;5057994;28;20480;-73
2021/03/08 09:50:17;;;;;;;1.20;1.10;;;19.90;37.80;;;;;;5068805;28;20477;-73
2021/03/08 09:52:44;;;;;;;1.07;1.07;;;19.90;37.80;;;;;;5073748;28;21001;-73
2021/03/08 09:55:12;;;;;;;0.90;0.90;;;19.90;37.80;;;;;;5070526;28;20492;-72
2021/03/08 09:57:40;;;;;;;2.00;0.77;;;19.90;37.80;;;;;;5075730;28;20488;-73
2021/03/08 10:00:07;;;;;;;0.70;0.70;;;19.90;37.80;;;;;;5069470;28;20478;-72
2021/03/08 10:02:34;;;;;;;1.47;0.87;;;19.80;37.70;;;;;;5077161;27;20468;-73
2021/03/08 10:05:01;;;;;;;1.40;1.30;;;19.90;37.80;;;;;;5072693;28;20480;-73
2021/03/08 10:07:27;;;;;;;1.03;0.93;;;19.90;37.80;;;;;;5072795;28;20483;-73
2021/03/08 10:10:10;;;;;;;1.03;0.93;;;19.90;37.80;;;;;;5071406;28;20489;-73
2021/03/08 10:12:36;;;;;;;1.00;1.00;;;19.90;37.80;;;;;;5073465;28;21544;-73
2021/03/08 10:15:02;;;;;;;1.30;1.20;;;20.00;37.90;;;;;;5073480;28;20477;-73
2021/03/08 10:17:29;;;;;;;0.80;0.80;;;19.90;37.80;;;;;;5070051;28;20851;-72
2021/03/08 10:19:55;;;;;;;1.10;1.10;;;19.90;37.80;;;;;;5070445;28;20473;-73
2021/03/08 10:22:35;;;;;;;1.10;1.00;;;19.90;37.80;;;;;;5070465;28;20481;-72
2021/03/08 10:25:02;;;;;;;2.27;1.10;;;19.90;37.80;;;;;;5070245;28;20496;-73
2021/03/08 10:27:31;;;;;;;1.70;1.10;;;19.90;37.80;;;;;;5071379;28;20508;-72
2021/03/08 10:29:57;;;;;;;1.20;1.10;;;19.90;37.80;;;;;;5070921;28;20477;-72
2021/03/08 10:32:24;;;;;;;1.43;1.00;;;19.90;37.80;;;;;;5074057;28;20492;-72
2021/03/08 10:34:50;;;;;;;2.93;0.97;;;19.90;37.80;;;;;;5069357;28;20484;-72
2021/03/08 10:37:18;;;;;;;0.90;0.90;;;19.90;37.80;;;;;;5060777;28;20473;-73
2021/03/08 10:39:45;;;;;;;0.73;0.73;;;19.80;37.80;;;;;;5069916;28;20481;-73
2021/03/08 10:42:11;;;;;;;1.67;0.80;;;19.90;37.80;;;;;;5064131;28;20489;-72
2021/03/08 10:44:37;;;;;;;1.70;0.90;;;19.90;37.80;;;;;;5086309;27;20485;-72
2021/03/08 10:47:13;;;;;;;1.20;0.93;;;19.90;37.80;;;;;;5070054;28;20528;-72
2021/03/08 10:49:48;;;;;;;1.33;1.23;;;20.10;37.90;;;;;;5069230;27;21014;-73
2021/03/08 10:52:15;;;;;;;0.90;0.80;;;20.00;37.80;;;;;;5075005;28;20481;-73
2021/03/08 10:54:41;;;;;;;1.10;1.00;;;20.00;37.70;;;;;;5073612;27;20483;-73
2021/03/08 10:57:08;;;;;;;0.60;0.60;;;20.00;37.90;;;;;;5086349;27;20486;-73
2021/03/08 10:59:34;;;;;;;1.10;0.97;;;20.00;37.90;;;;;;5074154;28;20605;-72
2021/03/08 11:02:01;;;;;;;2.20;0.80;;;20.00;37.90;;;;;;5069030;28;20495;-73
2021/03/08 11:04:27;;;;;;;2.60;0.60;;;19.90;37.80;;;;;;5072311;28;20477;-73
2021/03/08 11:06:53;;;;;;;0.70;0.70;;;19.90;37.80;;;;;;5073149;28;20485;-73
2021/03/08 11:09:25;;;;;;;1.23;0.90;;;20.00;37.90;;;;;;5071428;28;20515;-72
2021/03/08 11:11:51;;;;;;;0.83;0.83;;;20.00;37.90;;;;;;5061480;28;21015;-73
2021/03/08 11:14:19;;;;;;;1.37;0.90;;;20.10;38.00;;;;;;5070439;28;20481;-73
2021/03/08 11:16:49;;;;;;;0.93;0.90;;;20.10;38.00;;;;;;5074826;28;20476;-72
2021/03/08 11:19:16;;;;;;;1.47;0.80;;;20.00;37.90;;;;;;5071556;28;20489;-73
2021/03/08 11:21:42;;;;;;;1.63;1.17;;;20.00;37.90;;;;;;5069761;28;20484;-72
2021/03/08 11:24:16;;;;;;;0.70;0.70;;;19.90;37.80;;;;;;5069565;28;20485;-73
2021/03/08 11:26:42;;;;;;;1.67;0.60;;;19.90;38.60;;;;;;5070157;28;20472;-73
2021/03/08 11:29:23;;;;;;;0.80;0.80;;;19.90;37.80;;;;;;5069952;28;20478;-71
2021/03/08 11:31:53;;;;;;;0.90;0.90;;;19.90;37.80;;;;;;5068499;28;20488;-73
2021/03/08 11:34:38;;;;;;;0.90;0.90;;;19.90;37.80;;;;;;5064351;28;20481;-72
2021/03/08 11:37:11;;;;;;;2.43;1.00;;;19.90;37.80;;;;;;5071453;28;20539;-72
2021/03/08 11:39:39;;;;;;;0.73;0.73;;;19.90;37.80;;;;;;5075623;28;20472;-72
2021/03/08 11:42:06;;;;;;;0.63;0.63;;;19.80;37.70;;;;;;5074853;28;20492;-72
2021/03/08 11:44:33;;;;;;;0.70;0.70;;;19.80;37.70;;;;;;5073019;28;21160;-72
2021/03/08 11:46:59;;;;;;;0.60;0.60;;;19.80;37.70;;;;;;5067194;28;20489;-73
2021/03/08 11:49:25;;;;;;;1.07;1.07;;;19.80;37.70;;;;;;5075299;28;20481;-72
2021/03/08 11:51:51;;;;;;;1.00;0.80;;;19.80;37.70;;;;;;5066979;28;20481;-72
2021/03/08 11:54:18;;;;;;;1.00;1.00;;;19.80;37.80;;;;;;5073342;28;20484;-72
2021/03/08 11:56:44;;;;;;;1.00;0.83;;;19.80;37.70;;;;;;5073562;28;20476;-73
2021/03/08 11:59:10;;;;;;;1.00;0.90;;;19.80;37.80;;;;;;5071551;28;20481;-73
2021/03/08 12:01:37;;;;;;;1.70;0.97;;;19.80;37.80;;;;;;5072931;28;21007;-72
2021/03/08 12:04:03;;;;;;;1.37;0.93;;;19.80;37.70;;;;;;5075805;28;20477;-72
2021/03/08 12:06:30;;;;;;;2.13;0.80;;;19.80;37.70;;;;;;5064210;28;20480;-72
2021/03/08 12:08:56;;;;;;;1.43;0.83;;;19.80;37.70;;;;;;5089573;27;20982;-72
2021/03/08 12:11:22;;;;;;;1.30;0.70;;;19.80;37.80;;;;;;5074782;28;20491;-73
2021/03/08 12:13:48;;;;;;;1.60;1.10;;;19.80;37.70;;;;;;5075310;28;21607;-73
2021/03/08 12:16:15;;;;;;;0.90;0.90;;;19.80;37.70;;;;;;5071905;28;20469;-72
2021/03/08 12:18:42;;;;;;;1.03;0.93;;;19.80;37.70;;;;;;5076018;28;20485;-73
2021/03/08 12:21:08;;;;;;;1.03;0.90;;;19.80;37.70;;;;;;5075930;28;20480;-72
2021/03/08 12:23:34;;;;;;;0.90;0.90;;;19.90;37.80;;;;;;5074073;28;20514;-71
2021/03/08 12:26:00;;;;;;;0.80;0.80;;;19.80;37.70;;;;;;5071572;28;20524;-71
2021/03/08 12:28:27;;;;;;;0.60;0.60;;;19.90;37.80;;;;;;5077911;27;20537;-71
2021/03/08 12:30:53;;;;;;;1.43;0.90;;;19.80;37.70;;;;;;5071739;28;20484;-72
2021/03/08 12:33:20;;;;;;;0.97;0.90;;;19.90;37.80;;;;;;5077672;27;20486;-72
2021/03/08 12:35:47;;;;;;;0.90;0.70;;;19.80;37.70;;;;;;5061977;28;20484;-73
2021/03/08 12:38:14;;;;;;;1.30;1.20;;;19.80;37.80;;;;;;5071294;28;20477;-72
2021/03/08 12:40:40;;;;;;;2.90;1.00;;;19.80;37.70;;;;;;5071290;28;20499;-71
2021/03/08 12:43:07;;;;;;;0.97;0.90;;;19.80;37.70;;;;;;5072239;28;20476;-72
2021/03/08 12:45:33;;;;;;;0.60;0.60;;;19.80;37.80;;;;;;5073170;28;20533;-71
2021/03/08 12:48:00;;;;;;;1.10;0.90;;;19.80;37.70;;;;;;5071847;28;20477;-73
2021/03/08 12:50:26;;;;;;;0.60;0.60;;;19.90;37.80;;;;;;5074480;28;20499;-72
2021/03/08 12:52:53;;;;;;;0.70;0.70;;;19.80;37.70;;;;;;5073805;28;20484;-72
2021/03/08 12:55:19;;;;;;;1.07;0.73;;;19.80;37.70;;;;;;5071390;28;20485;-71